createdAt,value
2022-08-31T00:02:12.724Z,101859.03
2022-08-31T00:04:42.134Z,101863.38
2022-08-31T00:07:10.695Z,101854.03
2022-08-31T00:09:39.002Z,101847.63
2022-08-31T00:12:07.427Z,101847.63
2022-08-31T00:14:37.013Z,101847.44
2022-08-31T00:17:05.305Z,101848.75
2022-08-31T00:19:33.943Z,101848.25
2022-08-31T00:22:02.940Z,101844.09
2022-08-31T00:24:32.211Z,101843.84
2022-08-31T00:27:00.951Z,101848.19
2022-08-31T00:29:29.196Z,101847.31
2022-08-31T00:31:57.547Z,101847.19
2022-08-31T00:34:28.005Z,101847.25
2022-08-31T00:36:56.432Z,101847.25
2022-08-31T00:39:24.657Z,101850.59
2022-08-31T00:41:52.994Z,101845.19
2022-08-31T00:44:22.881Z,101835.25
2022-08-31T00:46:51.604Z,101836.09
2022-08-31T00:49:32.455Z,101835.03
2022-08-31T00:52:14.781Z,101841.50
2022-08-31T00:54:56.566Z,101842.63
2022-08-31T00:57:37.021Z,101848.22
2022-08-31T01:00:12.295Z,101848.66
2022-08-31T01:02:41.640Z,101849.09
2022-08-31T01:05:11.740Z,101858.66
2022-08-31T01:07:48.785Z,101858.53
2022-08-31T01:10:23.954Z,101857.78
2022-08-31T01:12:57.242Z,101854.28
2022-08-31T01:15:30.187Z,101852.81
2022-08-31T01:18:04.225Z,101850.88
2022-08-31T01:20:49.566Z,101857.97
2022-08-31T01:23:42.868Z,101856.38
2022-08-31T01:26:20.292Z,101853.28
2022-08-31T01:28:50.965Z,101851.75
2022-08-31T01:31:32.261Z,101859.00
2022-08-31T01:34:03.267Z,101866.16
2022-08-31T01:36:34.659Z,101859.94
2022-08-31T01:39:06.006Z,101862.53
2022-08-31T01:41:34.932Z,101859.38
2022-08-31T01:44:03.400Z,101862.94
2022-08-31T01:46:31.809Z,101857.94
2022-08-31T01:49:02.000Z,101864.09
2022-08-31T01:51:30.770Z,101862.22
2022-08-31T01:53:59.097Z,101858.88
2022-08-31T01:56:38.530Z,101870.81
2022-08-31T01:59:11.696Z,101861.06
2022-08-31T02:02:08.979Z,101863.78
2022-08-31T02:04:38.392Z,101864.66
2022-08-31T02:07:06.627Z,101862.03
2022-08-31T02:09:35.714Z,101873.25
2022-08-31T02:12:04.564Z,101862.28
2022-08-31T02:14:34.676Z,101860.28
2022-08-31T02:17:02.908Z,101858.03
2022-08-31T02:19:31.169Z,101858.31
2022-08-31T02:21:59.601Z,101854.94
2022-08-31T02:24:28.805Z,101858.66
2022-08-31T02:26:57.913Z,101865.31
2022-08-31T02:29:27.809Z,101863.97
2022-08-31T02:31:57.049Z,101862.72
2022-08-31T02:34:26.022Z,101852.09
2022-08-31T02:36:54.285Z,101862.63
2022-08-31T02:39:23.380Z,101852.88
2022-08-31T02:41:51.973Z,101851.75
2022-08-31T02:44:20.250Z,101844.75
2022-08-31T02:46:49.538Z,101839.50
2022-08-31T02:49:40.871Z,101848.38
2022-08-31T02:52:09.205Z,101843.81
2022-08-31T02:54:38.236Z,101840.53
2022-08-31T02:57:07.114Z,101844.56
2022-08-31T02:59:35.440Z,101838.84
2022-08-31T03:02:04.188Z,101837.44
2022-08-31T03:04:34.249Z,101850.94
2022-08-31T03:07:02.454Z,101841.38
2022-08-31T03:09:32.747Z,101852.47
2022-08-31T03:12:01.212Z,101842.78
2022-08-31T03:14:29.551Z,101843.09
2022-08-31T03:16:57.813Z,101840.22
2022-08-31T03:19:26.107Z,101838.19
2022-08-31T03:21:56.176Z,101838.88
2022-08-31T03:24:27.331Z,101835.16
2022-08-31T03:26:56.223Z,101839.66
2022-08-31T03:29:24.491Z,101838.59
2022-08-31T03:31:55.479Z,101839.22
2022-08-31T03:34:24.842Z,101835.38
2022-08-31T03:36:53.187Z,101837.31
2022-08-31T03:39:21.717Z,101844.00
2022-08-31T03:41:50.071Z,101847.13
2022-08-31T03:44:21.793Z,101853.22
2022-08-31T03:46:51.116Z,101852.88
2022-08-31T03:49:20.499Z,101856.28
2022-08-31T03:52:05.287Z,101854.13
2022-08-31T03:54:41.691Z,101857.22
2022-08-31T03:57:10.276Z,101868.72
2022-08-31T03:59:38.492Z,101867.75
2022-08-31T04:02:18.890Z,101874.00
2022-08-31T04:05:07.459Z,101876.97
2022-08-31T04:07:55.085Z,101874.31
2022-08-31T04:10:44.423Z,101882.16
2022-08-31T04:13:29.909Z,101871.13
2022-08-31T04:16:21.917Z,101871.38
2022-08-31T04:19:30.295Z,101873.78
2022-08-31T04:22:04.331Z,101872.47
2022-08-31T04:24:37.224Z,101873.88
2022-08-31T04:27:08.238Z,101878.47
2022-08-31T04:29:36.458Z,101884.13
2022-08-31T04:32:04.697Z,101890.84
2022-08-31T04:34:32.979Z,101894.69
2022-08-31T04:37:01.817Z,101896.53
2022-08-31T04:39:32.328Z,101892.50
2022-08-31T04:42:01.313Z,101887.13
2022-08-31T04:44:33.119Z,101890.06
2022-08-31T04:47:02.611Z,101888.44
2022-08-31T04:49:31.103Z,101892.13
2022-08-31T04:51:59.442Z,101891.47
2022-08-31T04:54:31.347Z,101900.72
2022-08-31T04:56:59.627Z,101897.28
2022-08-31T04:59:32.860Z,101887.34
2022-08-31T05:02:17.335Z,101893.59
2022-08-31T05:04:51.333Z,101894.97
2022-08-31T05:07:19.564Z,101880.31
2022-08-31T05:09:48.207Z,101888.13
2022-08-31T05:12:16.802Z,101889.13
2022-08-31T05:14:48.072Z,101896.44
2022-08-31T05:17:24.543Z,101900.13
2022-08-31T05:19:52.981Z,101896.38
2022-08-31T05:22:21.479Z,101903.22
2022-08-31T05:24:52.946Z,101904.97
2022-08-31T05:27:21.472Z,101888.16
2022-08-31T05:29:50.830Z,101892.94
2022-08-31T05:32:39.414Z,101898.34
2022-08-31T05:35:09.126Z,101899.13
2022-08-31T05:37:37.585Z,101896.44
2022-08-31T05:40:07.959Z,101899.31
2022-08-31T05:42:37.250Z,101897.47
2022-08-31T05:45:06.017Z,101902.28
2022-08-31T05:47:34.423Z,101906.13
2022-08-31T05:50:02.779Z,101905.91
2022-08-31T05:52:37.565Z,101902.22
2022-08-31T05:55:06.316Z,101911.31
2022-08-31T05:57:34.596Z,101911.84
2022-08-31T06:00:05.629Z,101915.84
2022-08-31T06:02:42.299Z,101913.13
2022-08-31T06:05:13.220Z,101923.31
2022-08-31T06:07:42.428Z,101920.75
2022-08-31T06:10:14.995Z,101911.72
2022-08-31T06:12:47.405Z,101921.94
2022-08-31T06:15:16.308Z,101925.88
2022-08-31T06:17:45.288Z,101920.28
2022-08-31T06:20:17.783Z,101924.81
2022-08-31T06:22:48.002Z,101922.75
2022-08-31T06:25:26.010Z,101927.72
2022-08-31T06:27:56.575Z,101931.81
2022-08-31T06:30:27.543Z,101926.41
2022-08-31T06:32:58.819Z,101931.97
2022-08-31T06:35:31.978Z,101937.34
2022-08-31T06:38:18.541Z,101927.38
2022-08-31T06:41:18.958Z,101928.34
2022-08-31T06:44:10.197Z,101929.06
2022-08-31T06:46:52.595Z,101926.72
2022-08-31T06:49:24.347Z,101920.63
2022-08-31T06:51:52.610Z,101922.50
2022-08-31T06:54:29.554Z,101927.06
2022-08-31T06:57:22.207Z,101924.97
2022-08-31T07:00:10.079Z,101928.47
2022-08-31T07:02:52.965Z,101929.38
2022-08-31T07:05:25.677Z,101927.63
2022-08-31T07:07:55.106Z,101926.28
2022-08-31T07:10:23.450Z,101938.44
2022-08-31T07:12:51.680Z,101941.63
2022-08-31T07:15:19.936Z,101940.00
2022-08-31T07:17:49.912Z,101940.78
2022-08-31T07:20:18.138Z,101943.47
2022-08-31T07:22:46.569Z,101936.13
2022-08-31T07:25:36.289Z,101948.22
2022-08-31T07:28:05.360Z,101941.19
2022-08-31T07:30:42.300Z,101946.00
2022-08-31T07:33:12.580Z,101952.00
2022-08-31T07:35:47.744Z,101952.13
2022-08-31T07:39:06.614Z,101956.34
2022-08-31T07:41:55.288Z,101964.97
2022-08-31T07:44:24.334Z,101966.59
2022-08-31T07:46:55.286Z,101961.97
2022-08-31T07:49:26.363Z,101969.69
2022-08-31T07:52:25.067Z,101973.44
2022-08-31T07:55:12.445Z,101971.47
2022-08-31T07:57:54.906Z,101972.72
2022-08-31T08:00:30.309Z,101969.25
2022-08-31T08:03:08.012Z,101971.63
2022-08-31T08:05:56.518Z,101974.44
2022-08-31T08:08:36.041Z,101965.66
2022-08-31T08:11:22.910Z,101977.25
2022-08-31T08:14:14.514Z,101969.03
2022-08-31T08:16:55.056Z,101974.38
2022-08-31T08:19:35.866Z,101971.16
2022-08-31T08:22:04.544Z,101976.16
2022-08-31T08:24:46.855Z,101962.78
2022-08-31T08:27:30.848Z,101963.41
2022-08-31T08:30:16.440Z,101961.34
2022-08-31T08:32:45.347Z,101961.06
2022-08-31T08:35:13.800Z,101968.13
2022-08-31T08:37:57.664Z,101965.75
2022-08-31T08:40:42.578Z,101969.75
2022-08-31T08:43:18.111Z,101968.09
2022-08-31T08:45:51.758Z,101965.16
2022-08-31T08:48:28.126Z,101963.50
2022-08-31T08:50:56.875Z,101971.28
2022-08-31T08:53:34.237Z,101974.66
2022-08-31T08:56:32.827Z,101961.56
2022-08-31T08:59:04.546Z,101961.88
2022-08-31T09:01:37.514Z,101964.41
2022-08-31T09:04:35.598Z,101971.22
2022-08-31T09:08:05.188Z,101963.56
2022-08-31T09:10:58.917Z,101959.44
2022-08-31T09:13:55.482Z,101970.72
2022-08-31T09:16:44.748Z,101958.00
2022-08-31T09:19:17.382Z,101957.22
2022-08-31T09:21:52.380Z,101963.75
2022-08-31T09:24:27.531Z,101964.06
2022-08-31T09:28:02.146Z,101959.41
2022-08-31T09:30:45.352Z,101961.22
2022-08-31T09:33:26.654Z,101963.94
2022-08-31T09:36:19.076Z,101970.94
2022-08-31T09:38:47.443Z,101967.53
2022-08-31T09:41:33.415Z,101972.03
2022-08-31T09:44:29.598Z,101963.22
2022-08-31T09:47:05.395Z,101965.91
2022-08-31T09:49:38.706Z,101960.63
2022-08-31T09:52:45.212Z,101960.91
2022-08-31T09:55:25.519Z,101957.22
2022-08-31T09:58:03.226Z,101954.22
2022-08-31T10:00:47.971Z,101956.00
2022-08-31T10:03:28.363Z,101955.22
2022-08-31T10:05:56.567Z,101956.09
2022-08-31T10:08:38.354Z,101948.97
2022-08-31T10:11:19.733Z,101947.25
2022-08-31T10:14:06.286Z,101957.13
2022-08-31T10:16:49.637Z,101952.25
2022-08-31T10:19:30.505Z,101953.66
2022-08-31T10:22:25.712Z,101940.75
2022-08-31T10:25:21.673Z,101935.41
2022-08-31T10:28:12.122Z,101940.13
2022-08-31T10:30:58.394Z,101946.31
2022-08-31T10:34:09.391Z,101940.66
2022-08-31T10:36:41.536Z,101937.72
2022-08-31T10:39:37.706Z,101935.81
2022-08-31T10:42:25.741Z,101932.06
2022-08-31T10:45:03.557Z,101934.97
2022-08-31T10:47:34.514Z,101933.94
2022-08-31T10:50:04.685Z,101945.34
2022-08-31T10:52:46.255Z,101924.78
2022-08-31T10:55:29.155Z,101937.22
2022-08-31T10:58:35.999Z,101931.63
2022-08-31T11:01:19.346Z,101920.03
2022-08-31T11:04:28.758Z,101920.13
2022-08-31T11:07:26.720Z,101927.81
2022-08-31T11:10:20.082Z,101920.16
2022-08-31T11:13:03.131Z,101919.78
2022-08-31T11:16:01.763Z,101921.88
2022-08-31T11:18:59.410Z,101915.72
2022-08-31T11:21:51.061Z,101902.06
2022-08-31T11:24:41.398Z,101909.84
2022-08-31T11:27:24.747Z,101900.47
2022-08-31T11:30:24.577Z,101909.19
2022-08-31T11:33:00.528Z,101909.00
2022-08-31T11:35:48.218Z,101900.22
2022-08-31T11:39:03.539Z,101895.34
2022-08-31T11:41:31.608Z,101901.44
2022-08-31T11:44:04.451Z,101903.06
2022-08-31T11:46:40.136Z,101905.78
2022-08-31T11:49:10.902Z,101900.00
2022-08-31T11:51:42.065Z,101897.28
2022-08-31T11:54:26.630Z,101901.09
2022-08-31T11:56:57.020Z,101898.16
2022-08-31T11:59:30.233Z,101895.47
2022-08-31T12:02:20.904Z,101896.16
2022-08-31T12:04:51.178Z,101896.78
2022-08-31T12:07:35.968Z,101891.66
2022-08-31T12:10:07.203Z,101880.59
2022-08-31T12:13:03.441Z,101880.41
2022-08-31T12:16:12.179Z,101885.88
2022-08-31T12:19:04.655Z,101884.66
2022-08-31T12:21:57.330Z,101881.88
2022-08-31T12:25:04.135Z,101875.53
2022-08-31T12:28:01.352Z,101868.06
2022-08-31T12:30:29.899Z,101869.97
2022-08-31T12:33:08.192Z,101862.31
2022-08-31T12:35:39.062Z,101867.75
2022-08-31T12:38:16.922Z,101867.03
2022-08-31T12:40:52.114Z,101870.91
2022-08-31T12:43:49.277Z,101876.81
2022-08-31T12:47:19.220Z,101866.81
2022-08-31T12:50:38.215Z,101865.69
2022-08-31T12:53:18.247Z,101865.19
2022-08-31T12:56:35.703Z,101863.94
2022-08-31T13:00:01.354Z,101864.03
2022-08-31T13:02:33.364Z,101855.34
2022-08-31T13:05:16.590Z,101866.31
2022-08-31T13:07:44.807Z,101865.09
2022-08-31T13:10:26.624Z,101853.38
2022-08-31T13:13:00.737Z,101856.66
2022-08-31T13:15:40.173Z,101848.31
2022-08-31T13:18:26.206Z,101852.75
2022-08-31T13:21:06.790Z,101844.31
2022-08-31T13:23:48.200Z,101842.28
2022-08-31T13:26:25.479Z,101836.47
2022-08-31T13:29:00.040Z,101836.16
2022-08-31T13:31:33.621Z,101840.69
2022-08-31T13:34:07.542Z,101841.50
2022-08-31T13:36:51.730Z,101838.75
2022-08-31T13:39:39.120Z,101830.75
2022-08-31T13:42:22.153Z,101829.59
2022-08-31T13:44:59.791Z,101828.78
2022-08-31T13:47:47.612Z,101825.94
2022-08-31T13:50:52.639Z,101829.94
2022-08-31T13:53:53.755Z,101822.38
2022-08-31T13:56:46.493Z,101830.38
2022-08-31T13:59:22.236Z,101833.47
2022-08-31T14:02:22.314Z,101829.00
2022-08-31T14:04:57.487Z,101828.94
2022-08-31T14:07:43.963Z,101824.69
2022-08-31T14:10:32.677Z,101819.19
2022-08-31T14:13:14.263Z,101824.75
2022-08-31T14:15:58.219Z,101829.53
2022-08-31T14:18:35.631Z,101827.22
2022-08-31T14:21:23.071Z,101832.25
2022-08-31T14:24:03.159Z,101831.59
2022-08-31T14:26:38.393Z,101825.03
2022-08-31T14:29:12.879Z,101825.38
2022-08-31T14:31:49.165Z,101825.59
2022-08-31T14:34:34.022Z,101816.84
2022-08-31T14:37:11.292Z,101822.88
2022-08-31T14:39:46.458Z,101824.88
2022-08-31T14:42:36.338Z,101825.69
2022-08-31T14:45:18.386Z,101827.06
2022-08-31T14:47:52.448Z,101822.56
2022-08-31T14:50:26.389Z,101814.94
2022-08-31T14:52:58.332Z,101804.63
2022-08-31T14:55:30.090Z,101814.16
2022-08-31T14:58:08.682Z,101806.28
2022-08-31T15:00:43.912Z,101815.69
2022-08-31T15:03:15.211Z,101815.97
2022-08-31T15:05:43.792Z,101808.03
2022-08-31T15:08:12.462Z,101810.63
2022-08-31T15:10:41.206Z,101806.44
2022-08-31T15:13:09.669Z,101803.47
2022-08-31T15:15:38.036Z,101810.41
2022-08-31T15:18:06.572Z,101808.22
2022-08-31T15:20:37.688Z,101813.88
2022-08-31T15:23:06.956Z,101818.78
2022-08-31T15:25:36.628Z,101810.41
2022-08-31T15:28:05.150Z,101810.41
2022-08-31T15:30:33.907Z,101804.81
2022-08-31T15:33:02.119Z,101802.78
2022-08-31T15:35:31.856Z,101801.47
2022-08-31T15:38:01.262Z,101801.22
2022-08-31T15:40:38.569Z,101804.41
2022-08-31T15:43:09.586Z,101790.19
2022-08-31T15:45:38.014Z,101798.16
2022-08-31T15:48:24.608Z,101794.22
2022-08-31T15:51:00.601Z,101791.06
2022-08-31T15:53:30.792Z,101792.09
2022-08-31T15:56:06.638Z,101782.25
2022-08-31T15:58:39.027Z,101788.16
2022-08-31T16:01:16.648Z,101784.66
2022-08-31T16:03:52.571Z,101788.19
2022-08-31T16:06:28.051Z,101779.47
2022-08-31T16:08:56.855Z,101780.47
2022-08-31T16:11:31.205Z,101779.94
2022-08-31T16:14:00.065Z,101773.03
2022-08-31T16:16:34.496Z,101771.69
2022-08-31T16:19:04.509Z,101776.94
2022-08-31T16:21:37.364Z,101774.66
2022-08-31T16:24:09.797Z,101774.50
2022-08-31T16:26:43.307Z,101771.72
2022-08-31T16:29:22.291Z,101766.31
2022-08-31T16:31:51.124Z,101775.94
2022-08-31T16:34:20.936Z,101768.38
2022-08-31T16:36:53.064Z,101764.16
2022-08-31T16:39:24.354Z,101770.63
2022-08-31T16:41:54.613Z,101766.41
2022-08-31T16:44:25.580Z,101773.34
2022-08-31T16:47:07.357Z,101772.56
2022-08-31T16:49:36.392Z,101769.03
2022-08-31T16:52:21.296Z,101770.97
2022-08-31T16:54:52.054Z,101772.72
2022-08-31T16:57:27.208Z,101768.41
2022-08-31T16:59:57.615Z,101764.31
2022-08-31T17:02:27.188Z,101768.41
2022-08-31T17:05:00.584Z,101776.13
2022-08-31T17:07:29.205Z,101769.97
2022-08-31T17:10:04.081Z,101774.06
2022-08-31T17:12:32.769Z,101777.28
2022-08-31T17:15:04.255Z,101779.88
2022-08-31T17:17:33.108Z,101780.13
2022-08-31T17:20:01.622Z,101774.72
2022-08-31T17:22:33.775Z,101771.25
2022-08-31T17:25:04.364Z,101771.13
2022-08-31T17:27:34.989Z,101785.88
2022-08-31T17:30:07.379Z,101773.03
2022-08-31T17:32:39.476Z,101776.84
2022-08-31T17:35:19.163Z,101777.03
2022-08-31T17:37:47.923Z,101789.63
2022-08-31T17:40:16.948Z,101786.13
2022-08-31T17:42:46.295Z,101795.44
2022-08-31T17:45:15.624Z,101793.19
2022-08-31T17:47:44.002Z,101794.44
2022-08-31T17:50:14.030Z,101789.28
2022-08-31T17:52:42.287Z,101795.13
2022-08-31T17:55:10.751Z,101799.59
2022-08-31T17:57:40.753Z,101798.84
2022-08-31T18:00:10.055Z,101801.59
2022-08-31T18:02:38.526Z,101805.53
2022-08-31T18:05:09.415Z,101802.25
2022-08-31T18:07:41.057Z,101812.47
2022-08-31T18:10:10.320Z,101810.06
2022-08-31T18:12:41.939Z,101813.56
2022-08-31T18:15:13.853Z,101819.81
2022-08-31T18:17:43.115Z,101817.63
2022-08-31T18:20:12.541Z,101818.28
2022-08-31T18:22:43.590Z,101830.59
2022-08-31T18:25:12.119Z,101837.34
2022-08-31T18:27:40.353Z,101836.25
2022-08-31T18:30:13.785Z,101841.38
2022-08-31T18:32:42.452Z,101843.09
2022-08-31T18:35:18.580Z,101842.09
2022-08-31T18:37:46.799Z,101843.91
2022-08-31T18:40:33.988Z,101844.16
2022-08-31T18:43:20.770Z,101842.03
2022-08-31T18:45:50.456Z,101846.81
2022-08-31T18:48:25.209Z,101845.63
2022-08-31T18:51:03.878Z,101847.03
2022-08-31T18:53:34.634Z,101849.72
2022-08-31T18:56:09.994Z,101851.75
2022-08-31T18:58:39.187Z,101852.28
2022-08-31T19:01:11.313Z,101862.59
2022-08-31T19:03:41.128Z,101855.69
2022-08-31T19:06:18.935Z,101849.06
2022-08-31T19:08:48.734Z,101856.75
2022-08-31T19:11:19.227Z,101854.72
2022-08-31T19:13:51.155Z,101854.22
2022-08-31T19:16:28.997Z,101852.44
2022-08-31T19:18:58.596Z,101852.59
2022-08-31T19:21:33.192Z,101858.94
2022-08-31T19:24:05.409Z,101852.28
2022-08-31T19:26:44.477Z,101858.13
2022-08-31T19:29:14.739Z,101856.00
2022-08-31T19:31:46.552Z,101858.38
2022-08-31T19:34:20.877Z,101861.78
2022-08-31T19:36:53.966Z,101870.53
2022-08-31T19:39:27.936Z,101863.66
2022-08-31T19:42:03.405Z,101866.09
2022-08-31T19:44:54.333Z,101870.91
2022-08-31T19:47:24.916Z,101868.50
2022-08-31T19:49:53.318Z,101863.94
2022-08-31T19:52:21.694Z,101867.41
2022-08-31T19:54:49.883Z,101875.16
2022-08-31T19:57:21.403Z,101862.94
2022-08-31T19:59:49.909Z,101862.94
2022-08-31T20:02:18.532Z,101868.38
2022-08-31T20:04:46.854Z,101867.28
2022-08-31T20:07:15.095Z,101865.78
2022-08-31T20:09:43.297Z,101861.66
2022-08-31T20:12:11.858Z,101867.78
2022-08-31T20:14:40.127Z,101860.13
2022-08-31T20:17:09.878Z,101868.47
2022-08-31T20:19:39.853Z,101863.03
2022-08-31T20:22:08.400Z,101867.72
2022-08-31T20:24:43.875Z,101874.16
2022-08-31T20:27:18.498Z,101875.56
2022-08-31T20:29:48.262Z,101871.22
2022-08-31T20:32:16.836Z,101879.75
2022-08-31T20:34:45.113Z,101875.91
2022-08-31T20:37:13.461Z,101878.88
2022-08-31T20:39:42.207Z,101882.53
2022-08-31T20:42:10.471Z,101880.09
2022-08-31T20:44:39.029Z,101879.47
2022-08-31T20:47:29.245Z,101880.38
2022-08-31T20:50:01.430Z,101881.34
2022-08-31T20:52:33.063Z,101887.59
2022-08-31T20:55:05.431Z,101882.97
2022-08-31T20:57:37.611Z,101879.25
2022-08-31T21:00:10.328Z,101884.28
2022-08-31T21:02:39.898Z,101888.84
2022-08-31T21:07:59.873Z,101902.41
2022-08-31T21:10:37.109Z,101890.03
2022-08-31T21:13:09.189Z,101898.53
2022-08-31T21:15:44.691Z,101894.75
2022-08-31T21:18:17.674Z,101896.69
2022-08-31T21:20:47.375Z,101893.25
2022-08-31T21:23:15.755Z,101899.38
2022-08-31T21:25:46.495Z,101897.38
2022-08-31T21:28:17.521Z,101902.69
2022-08-31T21:30:50.460Z,101894.53
2022-08-31T21:33:19.449Z,101899.38
2022-08-31T21:35:47.870Z,101901.69
2022-08-31T21:38:16.280Z,101903.97
2022-08-31T21:40:50.087Z,101907.19
2022-08-31T21:43:18.865Z,101900.41
2022-08-31T21:45:47.242Z,101895.44
2022-08-31T21:48:15.420Z,101901.00
2022-08-31T21:50:44.024Z,101899.72
2022-08-31T21:53:12.955Z,101905.22
2022-08-31T21:55:41.212Z,101909.94
2022-08-31T21:58:09.615Z,101908.44
2022-08-31T22:00:42.140Z,101906.81
2022-08-31T22:03:10.765Z,101912.56
2022-08-31T22:05:43.506Z,101913.41
2022-08-31T22:08:11.786Z,101907.03
2022-08-31T22:10:42.989Z,101919.13
2022-08-31T22:13:13.018Z,101918.19
2022-08-31T22:15:42.658Z,101914.28
2022-08-31T22:18:58.319Z,101912.81
2022-08-31T22:20:59.817Z,101916.16
2022-08-31T22:23:28.309Z,101911.09
2022-08-31T22:25:57.093Z,101918.44
2022-08-31T22:28:27.755Z,101920.13
2022-08-31T22:30:56.375Z,101926.59
2022-08-31T22:33:24.988Z,101923.59
2022-08-31T22:35:53.853Z,101922.81
2022-08-31T22:38:21.988Z,101922.22
2022-08-31T22:40:50.950Z,101922.38
2022-08-31T22:43:19.254Z,101918.44
2022-08-31T22:45:49.030Z,101917.41
2022-08-31T22:48:17.575Z,101914.75
2022-08-31T22:50:46.044Z,101924.53
2022-08-31T22:53:14.250Z,101925.69
2022-08-31T22:55:43.167Z,101921.88
2022-08-31T22:58:12.884Z,101922.13
2022-08-31T23:00:42.152Z,101922.38
2022-08-31T23:03:14.895Z,101920.47
2022-08-31T23:05:44.100Z,101918.19
2022-08-31T23:08:14.853Z,101922.22
2022-08-31T23:10:44.271Z,101930.13
2022-08-31T23:13:12.630Z,101924.88
2022-08-31T23:15:40.941Z,101914.19
2022-08-31T23:18:10.073Z,101923.03
2022-08-31T23:20:40.739Z,101912.50
2022-08-31T23:23:10.096Z,101909.69
2022-08-31T23:25:40.291Z,101914.47
2022-08-31T23:28:09.556Z,101912.75
2022-08-31T23:30:38.103Z,101912.34
2022-08-31T23:33:07.506Z,101911.94
2022-08-31T23:35:35.863Z,101909.97
2022-08-31T23:38:04.051Z,101910.53
2022-08-31T23:40:34.316Z,101909.41
2022-08-31T23:43:03.062Z,101908.94
2022-08-31T23:45:33.324Z,101905.94
2022-08-31T23:48:01.552Z,101907.13
2022-08-31T23:50:29.741Z,101906.19
2022-08-31T23:52:57.940Z,101907.63
2022-08-31T23:55:29.090Z,101905.84
2022-08-31T23:57:58.422Z,101909.25
